Time;durP1;ratioP1;P1;durP2;ratioP2;P2;SDS_P1;SDS_P2;PMS_P1;PMS_P2;Temp;Humidity;BMP_temperature;BMP_pressure;BME280_temperature;BME280_humidity;BME280_pressure;Samples;Min_cycle;Max_cycle;Signal;HPM_P1;HPM_P2
2021/12/19 00:00:09;;;;;;;;;23.00;20.75;;;;;;;;5101737;27;45329;-77
2021/12/19 00:02:46;;;;;;;;;34.50;30.75;;;;;;;;5102043;27;45353;-76
2021/12/19 00:10:21;;;;;;;;;27.67;25.00;;;;;;;;5101585;27;45471;-76
2021/12/19 00:12:46;;;;;;;;;38.75;32.25;;;;;;;;5083033;27;45484;-76
2021/12/19 00:15:11;;;;;;;;;38.50;33.25;;;;;;;;5101383;27;45277;-76
2021/12/19 00:17:38;;;;;;;;;42.25;37.50;;;;;;;;5101467;27;45368;-76
2021/12/19 00:20:03;;;;;;;;;37.00;32.00;;;;;;;;5101524;27;45364;-76
2021/12/19 00:22:29;;;;;;;;;32.00;30.75;;;;;;;;5101519;27;45224;-76
2021/12/19 00:24:54;;;;;;;;;31.00;23.33;;;;;;;;5101322;27;45208;-76
2021/12/19 00:27:19;;;;;;;;;30.33;27.33;;;;;;;;5101087;27;46549;-77
2021/12/19 00:29:44;;;;;;;;;32.67;30.67;;;;;;;;5082735;27;45304;-76
2021/12/19 00:32:09;;;;;;;;;39.00;33.50;;;;;;;;5083065;27;45574;-77
2021/12/19 00:34:35;;;;;;;;;35.50;32.00;;;;;;;;5101328;27;45191;-76
2021/12/19 00:37:00;;;;;;;;;37.50;34.00;;;;;;;;5096288;27;45257;-77
2021/12/19 00:39:25;;;;;;;;;35.00;31.75;;;;;;;;5080849;28;45207;-77
2021/12/19 00:41:52;;;;;;;;;39.00;34.50;;;;;;;;5062453;28;45231;-76
2021/12/19 00:44:22;;;;;;;;;35.67;31.67;;;;;;;;5080505;28;45298;-77
2021/12/19 00:46:53;;;;;;;;;33.00;30.67;;;;;;;;5080558;28;46055;-77
2021/12/19 00:49:22;;;;;;;;;34.67;33.33;;;;;;;;5080299;28;45306;-76
2021/12/19 00:51:48;;;;;;;;;32.00;30.00;;;;;;;;5080484;28;45350;-76
2021/12/19 00:54:14;;;;;;;;;30.67;29.33;;;;;;;;5080273;28;46432;-76
2021/12/19 00:56:41;;;;;;;;;35.67;31.67;;;;;;;;5080170;28;45262;-76
2021/12/19 00:59:06;;;;;;;;;34.00;31.67;;;;;;;;5080251;28;45299;-77
2021/12/19 01:01:32;;;;;;;;;39.00;30.33;;;;;;;;5080371;28;45246;-76
2021/12/19 01:03:57;;;;;;;;;34.00;31.00;;;;;;;;5061931;28;46102;-77
2021/12/19 01:06:23;;;;;;;;;36.00;31.00;;;;;;;;5061921;28;47414;-76
2021/12/19 01:08:48;;;;;;;;;31.33;26.67;;;;;;;;5080378;28;45204;-76
2021/12/19 01:11:14;;;;;;;;;32.33;29.67;;;;;;;;5080247;28;45264;-76
2021/12/19 01:13:39;;;;;;;;;33.67;29.00;;;;;;;;5079969;28;45315;-77
2021/12/19 01:16:04;;;;;;;;;37.25;32.00;;;;;;;;5061781;28;48475;-76
2021/12/19 01:18:29;;;;;;;;;34.67;32.33;;;;;;;;5080207;28;45232;-77
2021/12/19 01:20:55;;;;;;;;;30.67;26.33;;;;;;;;5062115;28;45253;-77
2021/12/19 01:23:22;;;;;;;;;35.33;27.67;;;;;;;;5080107;28;45325;-77
2021/12/19 01:25:47;;;;;;;;;31.33;26.33;;;;;;;;5079940;28;46015;-77
2021/12/19 01:28:12;;;;;;;;;27.67;26.00;;;;;;;;5061534;28;45295;-77
2021/12/19 01:30:38;;;;;;;;;28.00;23.33;;;;;;;;5079984;28;45293;-77
2021/12/19 01:33:03;;;;;;;;;29.00;28.33;;;;;;;;5079874;28;45522;-76
2021/12/19 01:35:28;;;;;;;;;30.67;28.33;;;;;;;;5079902;28;45339;-76
2021/12/19 01:37:53;;;;;;;;;37.67;31.00;;;;;;;;5073814;27;45339;-76
2021/12/19 01:40:19;;;;;;;;;29.67;23.33;;;;;;;;5100482;27;45353;-76
2021/12/19 01:42:47;;;;;;;;;25.67;21.67;;;;;;;;5100108;27;45666;-77
2021/12/19 01:45:14;;;;;;;;;26.67;24.33;;;;;;;;5099995;27;46549;-76
2021/12/19 01:47:40;;;;;;;;;33.00;28.00;;;;;;;;5100015;27;45440;-76
2021/12/19 01:50:07;;;;;;;;;26.67;25.00;;;;;;;;5081674;27;45313;-77
2021/12/19 01:52:32;;;;;;;;;29.00;26.00;;;;;;;;5081710;27;46468;-76
2021/12/19 01:54:58;;;;;;;;;31.00;29.00;;;;;;;;5081499;27;47492;-76
2021/12/19 01:57:25;;;;;;;;;32.00;25.67;;;;;;;;5099950;27;45287;-77
2021/12/19 01:59:50;;;;;;;;;30.67;25.67;;;;;;;;5081862;27;45326;-76
2021/12/19 02:02:16;;;;;;;;;33.33;27.00;;;;;;;;5081337;27;46102;-76
2021/12/19 02:04:43;;;;;;;;;31.00;28.67;;;;;;;;5099836;27;46139;-76
2021/12/19 02:07:09;;;;;;;;;36.67;27.67;;;;;;;;5099988;27;45205;-76
2021/12/19 02:09:34;;;;;;;;;27.67;21.00;;;;;;;;5100037;27;45354;-76
2021/12/19 02:11:59;;;;;;;;;31.67;28.00;;;;;;;;5099572;27;45485;-76
2021/12/19 02:14:25;;;;;;;;;26.67;25.33;;;;;;;;5099663;27;45294;-76
2021/12/19 02:16:50;;;;;;;;;23.67;23.00;;;;;;;;5081509;27;45310;-76
2021/12/19 02:19:15;;;;;;;;;27.00;25.67;;;;;;;;5100064;27;45560;-76
2021/12/19 02:21:40;;;;;;;;;22.00;20.67;;;;;;;;5081229;27;46065;-77
2021/12/19 02:24:07;;;;;;;;;29.33;26.67;;;;;;;;5081204;27;47635;-77
2021/12/19 02:26:33;;;;;;;;;23.00;22.00;;;;;;;;5099579;27;45297;-76
2021/12/19 02:28:58;;;;;;;;;33.00;26.00;;;;;;;;5101183;27;45320;-76
2021/12/19 02:31:23;;;;;;;;;28.00;24.67;;;;;;;;5084800;27;45993;-76
2021/12/19 02:34:26;;;;;;;;;23.67;21.33;;;;;;;;5103141;27;45250;-77
2021/12/19 02:37:01;;;;;;;;;20.00;18.67;;;;;;;;5095739;27;45380;-76
2021/12/19 02:50:00;;;;;;;;;24.33;23.67;;;;;;;;5082458;28;45299;-76
2021/12/19 02:52:25;;;;;;;;;24.67;19.33;;;;;;;;5082490;28;45260;-77
2021/12/19 02:54:50;;;;;;;;;23.67;23.00;;;;;;;;5082357;28;45703;-77
2021/12/19 02:57:16;;;;;;;;;23.00;20.33;;;;;;;;5063927;28;45299;-76
2021/12/19 02:59:41;;;;;;;;;14.67;14.00;;;;;;;;5082443;28;45189;-77
2021/12/19 03:02:06;;;;;;;;;16.33;16.33;;;;;;;;5063812;28;46330;-77
2021/12/19 03:04:31;;;;;;;;;21.00;18.67;;;;;;;;5082174;28;46083;-77
2021/12/19 03:06:56;;;;;;;;;21.33;14.33;;;;;;;;5063908;28;45252;-77
2021/12/19 03:19:53;;;;;;;;;14.00;14.00;;;;;;;;5082052;28;45423;-76
2021/12/19 03:22:18;;;;;;;;;20.00;18.00;;;;;;;;5081837;28;45233;-76
2021/12/19 03:24:43;;;;;;;;;16.00;16.00;;;;;;;;5081916;28;45307;-76
2021/12/19 03:27:08;;;;;;;;;15.33;14.67;;;;;;;;5081807;28;45330;-77
2021/12/19 03:29:34;;;;;;;;;19.67;18.67;;;;;;;;5081731;28;45381;-76
2021/12/19 03:31:59;;;;;;;;;19.33;17.00;;;;;;;;5081948;28;45287;-76
2021/12/19 03:34:24;;;;;;;;;25.00;20.67;;;;;;;;5081727;28;45421;-76
2021/12/19 03:36:51;;;;;;;;;22.33;16.67;;;;;;;;5084966;27;45327;-76
2021/12/19 03:39:26;;;;;;;;;22.33;18.67;;;;;;;;5101625;27;45426;-76
2021/12/19 03:41:54;;;;;;;;;19.67;18.33;;;;;;;;5101426;27;45370;-77
2021/12/19 03:44:19;;;;;;;;;21.00;20.33;;;;;;;;5101807;27;46341;-77
2021/12/19 03:46:44;;;;;;;;;17.67;17.67;;;;;;;;5101955;27;45263;-76
2021/12/19 03:49:10;;;;;;;;;15.00;15.00;;;;;;;;5102259;27;45272;-77
2021/12/19 03:51:36;;;;;;;;;19.67;17.67;;;;;;;;5101783;27;45540;-76
2021/12/19 03:54:01;;;;;;;;;23.33;18.33;;;;;;;;5101693;27;46917;-76
2021/12/19 03:56:26;;;;;;;;;19.33;14.67;;;;;;;;5101801;27;45158;-77
2021/12/19 03:58:51;;;;;;;;;11.33;11.33;;;;;;;;5102085;27;45170;-76
2021/12/19 04:01:17;;;;;;;;;20.00;17.00;;;;;;;;5101876;27;45310;-76
2021/12/19 04:03:44;;;;;;;;;15.00;13.67;;;;;;;;5101327;27;46039;-76
2021/12/19 04:06:10;;;;;;;;;15.00;14.67;;;;;;;;5101781;27;45265;-76
2021/12/19 04:08:35;;;;;;;;;16.00;13.33;;;;;;;;5101607;27;45441;-76
2021/12/19 04:11:00;;;;;;;;;16.33;14.33;;;;;;;;5101540;27;45402;-77
2021/12/19 04:13:25;;;;;;;;;18.33;14.00;;;;;;;;5101499;27;46322;-76
2021/12/19 04:15:51;;;;;;;;;21.67;15.33;;;;;;;;5083087;27;45247;-76
2021/12/19 04:18:16;;;;;;;;;12.67;12.67;;;;;;;;5083392;27;45308;-76
2021/12/19 04:20:41;;;;;;;;;14.67;12.67;;;;;;;;5101622;27;45297;-76
2021/12/19 04:23:06;;;;;;;;;12.67;12.00;;;;;;;;5101476;27;45399;-76
2021/12/19 04:25:32;;;;;;;;;20.00;18.33;;;;;;;;5101506;27;45404;-76
2021/12/19 04:27:57;;;;;;;;;21.67;18.00;;;;;;;;5082843;27;45414;-76
2021/12/19 04:30:24;;;;;;;;;16.67;16.33;;;;;;;;5101100;27;45274;-76
2021/12/19 04:33:25;;;;;;;;;22.00;18.67;;;;;;;;5101285;27;46100;-76
2021/12/19 04:35:44;;;;;;;;;16.00;15.33;;;;;;;;5096949;27;45323;-77
2021/12/19 05:00:05;;;;;;;;;23.00;19.00;;;;;;;;5080516;28;45310;-76
2021/12/19 05:02:59;;;;;;;;;18.00;17.67;;;;;;;;5066561;28;45279;-76
2021/12/19 05:15:28;;;;;;;;;17.33;15.67;;;;;;;;5079955;28;45804;-77
2021/12/19 05:17:56;;;;;;;;;15.33;14.33;;;;;;;;5061804;28;45420;-77
2021/12/19 05:20:25;;;;;;;;;14.67;12.33;;;;;;;;5062035;28;45322;-77
2021/12/19 05:22:55;;;;;;;;;14.00;12.00;;;;;;;;5061746;28;45955;-77
2021/12/19 05:25:20;;;;;;;;;14.33;13.33;;;;;;;;5079806;28;46301;-77
2021/12/19 05:27:46;;;;;;;;;14.67;14.67;;;;;;;;5079772;28;45290;-77
2021/12/19 05:30:12;;;;;;;;;10.33;9.33;;;;;;;;5079983;28;45258;-76
2021/12/19 05:32:38;;;;;;;;;17.00;13.33;;;;;;;;5061698;28;47025;-77
2021/12/19 05:35:03;;;;;;;;;19.67;12.67;;;;;;;;5079758;28;45149;-77
2021/12/19 05:45:40;;;;;;;;;16.00;13.67;;;;;;;;5099963;27;45709;-76
2021/12/19 05:48:05;;;;;;;;;17.67;17.67;;;;;;;;5100097;27;45282;-76
2021/12/19 05:50:31;;;;;;;;;14.67;14.67;;;;;;;;5082003;27;45243;-76
2021/12/19 05:52:56;;;;;;;;;16.67;14.00;;;;;;;;5081665;27;47320;-76
2021/12/19 05:55:21;;;;;;;;;14.33;14.00;;;;;;;;5100155;27;46005;-77
2021/12/19 05:57:46;;;;;;;;;15.33;14.67;;;;;;;;5100124;27;45188;-77
2021/12/19 06:00:14;;;;;;;;;20.33;16.00;;;;;;;;5081780;27;45323;-77
2021/12/19 06:02:40;;;;;;;;;17.33;16.33;;;;;;;;5099988;27;45532;-76
2021/12/19 06:05:06;;;;;;;;;18.00;15.00;;;;;;;;5103292;27;45357;-76
2021/12/19 06:07:31;;;;;;;;;17.00;14.67;;;;;;;;5103589;27;45271;-76
2021/12/19 06:09:59;;;;;;;;;19.00;18.33;;;;;;;;5085440;27;45278;-77
2021/12/19 06:12:24;;;;;;;;;17.00;14.00;;;;;;;;5084738;27;45431;-76
2021/12/19 06:14:49;;;;;;;;;15.33;14.00;;;;;;;;5103283;27;45416;-77
2021/12/19 06:17:14;;;;;;;;;14.00;12.67;;;;;;;;5103464;27;45342;-76
2021/12/19 06:19:40;;;;;;;;;16.00;15.00;;;;;;;;5103737;27;45149;-76
2021/12/19 06:22:06;;;;;;;;;16.67;16.67;;;;;;;;5084962;27;46933;-76
2021/12/19 06:24:32;;;;;;;;;19.33;15.00;;;;;;;;5085002;27;45516;-76
2021/12/19 06:26:58;;;;;;;;;18.33;16.33;;;;;;;;5103310;27;45302;-77
2021/12/19 06:29:23;;;;;;;;;19.00;17.67;;;;;;;;5103148;27;45258;-77
2021/12/19 06:31:49;;;;;;;;;21.33;18.67;;;;;;;;5103080;27;45802;-76
2021/12/19 06:34:14;;;;;;;;;17.33;16.00;;;;;;;;5103276;27;46134;-76
2021/12/19 06:36:40;;;;;;;;;16.33;13.33;;;;;;;;5101300;27;45211;-76
2021/12/19 06:39:06;;;;;;;;;20.00;18.67;;;;;;;;5083040;28;45274;-76
2021/12/19 06:41:31;;;;;;;;;21.00;15.67;;;;;;;;5082341;28;45306;-76
2021/12/19 06:43:56;;;;;;;;;18.33;15.00;;;;;;;;5064153;28;47021;-76
2021/12/19 06:46:21;;;;;;;;;16.67;15.00;;;;;;;;5082549;28;45244;-76
2021/12/19 06:48:46;;;;;;;;;14.33;14.00;;;;;;;;5082732;28;45392;-77
2021/12/19 06:51:12;;;;;;;;;16.00;14.33;;;;;;;;5082496;28;45334;-76
2021/12/19 06:53:37;;;;;;;;;13.67;12.00;;;;;;;;5082492;28;45311;-76
2021/12/19 06:56:03;;;;;;;;;15.33;15.33;;;;;;;;5082153;28;45348;-77
2021/12/19 06:58:29;;;;;;;;;13.00;12.67;;;;;;;;5082470;28;45392;-76
2021/12/19 07:00:54;;;;;;;;;14.00;14.00;;;;;;;;5082243;28;45314;-77
2021/12/19 07:03:23;;;;;;;;;13.33;11.00;;;;;;;;5063834;28;47273;-77
2021/12/19 07:05:48;;;;;;;;;12.33;12.33;;;;;;;;5082154;28;45405;-77
2021/12/19 07:08:13;;;;;;;;;15.67;13.67;;;;;;;;5082427;28;45288;-76
2021/12/19 07:10:39;;;;;;;;;13.67;13.67;;;;;;;;5082239;28;45190;-76
2021/12/19 07:13:04;;;;;;;;;17.00;16.33;;;;;;;;5082018;28;46644;-76
2021/12/19 07:15:29;;;;;;;;;20.00;18.00;;;;;;;;5081879;28;45283;-76
2021/12/19 07:17:57;;;;;;;;;16.33;15.33;;;;;;;;5063928;28;45357;-76
2021/12/19 07:20:22;;;;;;;;;18.67;18.33;;;;;;;;5082204;28;45338;-77
2021/12/19 07:22:47;;;;;;;;;15.00;13.67;;;;;;;;5081867;28;45286;-76
2021/12/19 07:25:12;;;;;;;;;16.00;14.00;;;;;;;;5063426;28;45360;-77
2021/12/19 07:27:38;;;;;;;;;16.00;14.33;;;;;;;;5081912;28;45228;-77
2021/12/19 07:30:04;;;;;;;;;18.00;14.00;;;;;;;;5081605;28;45339;-77
2021/12/19 07:32:30;;;;;;;;;11.67;10.00;;;;;;;;5081750;28;45766;-77
2021/12/19 07:34:55;;;;;;;;;15.33;12.00;;;;;;;;5081817;28;45352;-76
2021/12/19 07:37:21;;;;;;;;;14.67;13.33;;;;;;;;5071176;27;45720;-77
2021/12/19 07:39:54;;;;;;;;;18.67;12.00;;;;;;;;5102162;27;45323;-76
2021/12/19 07:42:19;;;;;;;;;16.33;14.00;;;;;;;;5101883;27;45373;-76
2021/12/19 07:44:45;;;;;;;;;15.67;15.00;;;;;;;;5101745;27;45256;-76
2021/12/19 07:47:12;;;;;;;;;17.00;13.00;;;;;;;;5102299;27;45377;-76
2021/12/19 07:49:37;;;;;;;;;16.67;14.67;;;;;;;;5089737;27;45377;-78
2021/12/19 07:52:03;;;;;;;;;12.67;12.67;;;;;;;;5081140;28;45430;-77
2021/12/19 07:54:29;;;;;;;;;15.00;14.00;;;;;;;;5081509;28;45286;-76
2021/12/19 07:56:54;;;;;;;;;14.67;13.33;;;;;;;;5081432;28;45707;-76
2021/12/19 07:59:19;;;;;;;;;15.33;14.33;;;;;;;;5081526;28;45410;-76
2021/12/19 08:01:44;;;;;;;;;13.33;13.33;;;;;;;;5081218;28;45194;-77
2021/12/19 08:04:10;;;;;;;;;17.67;15.00;;;;;;;;5081496;28;45330;-77
2021/12/19 08:06:35;;;;;;;;;10.33;7.67;;;;;;;;5063071;28;45388;-77
2021/12/19 08:09:08;;;;;;;;;16.00;13.67;;;;;;;;5063210;28;46137;-77
2021/12/19 08:11:42;;;;;;;;;15.67;13.33;;;;;;;;5081074;28;45252;-77
2021/12/19 08:14:11;;;;;;;;;17.33;11.00;;;;;;;;5081129;28;45286;-76
2021/12/19 08:16:37;;;;;;;;;12.33;11.67;;;;;;;;5062991;28;45385;-77
2021/12/19 08:19:02;;;;;;;;;16.00;15.67;;;;;;;;5081014;28;45278;-76
2021/12/19 08:21:27;;;;;;;;;15.00;14.33;;;;;;;;5080722;28;46493;-76
2021/12/19 08:23:57;;;;;;;;;15.67;12.67;;;;;;;;5080467;28;45474;-76
2021/12/19 08:26:22;;;;;;;;;13.00;11.33;;;;;;;;5076294;28;45240;-78
2021/12/19 08:28:48;;;;;;;;;11.00;10.67;;;;;;;;5065991;28;45211;-78
2021/12/19 08:31:13;;;;;;;;;14.33;11.67;;;;;;;;5060329;28;46117;-78
2021/12/19 08:33:38;;;;;;;;;6.50;6.50;;;;;;;;5070166;28;45432;-79
2021/12/19 08:36:03;;;;;;;;;10.33;10.33;;;;;;;;5077347;28;45410;-79
2021/12/19 08:38:29;;;;;;;;;14.67;12.33;;;;;;;;5097983;27;45440;-79
2021/12/19 08:40:55;;;;;;;;;15.33;14.67;;;;;;;;5100843;27;46082;-78
2021/12/19 08:43:20;;;;;;;;;15.00;13.00;;;;;;;;5082634;27;45369;-76
2021/12/19 08:45:46;;;;;;;;;15.67;14.00;;;;;;;;5100822;27;45320;-77
2021/12/19 08:48:11;;;;;;;;;19.00;17.00;;;;;;;;5100957;27;45462;-79
2021/12/19 08:50:36;;;;;;;;;12.00;10.67;;;;;;;;5082357;27;47230;-80
2021/12/19 08:53:01;;;;;;;;;17.00;15.67;;;;;;;;5080210;27;45807;-80
2021/12/19 08:55:27;;;;;;;;;14.00;13.00;;;;;;;;5080462;28;45557;-79
2021/12/19 08:57:52;;;;;;;;;15.00;14.00;;;;;;;;5061215;28;45879;-78
2021/12/19 09:00:18;;;;;;;;;18.00;16.00;;;;;;;;5080324;28;45473;-78
2021/12/19 09:02:46;;;;;;;;;11.33;11.00;;;;;;;;5061503;28;46164;-79
2021/12/19 09:05:11;;;;;;;;;16.33;14.67;;;;;;;;5080670;28;45325;-78
2021/12/19 09:07:36;;;;;;;;;17.33;14.00;;;;;;;;5078521;28;45610;-78
2021/12/19 09:10:03;;;;;;;;;10.33;9.33;;;;;;;;5080058;28;45458;-78
2021/12/19 09:12:28;;;;;;;;;13.67;10.33;;;;;;;;5060809;28;46825;-79
2021/12/19 09:14:54;;;;;;;;;12.33;12.33;;;;;;;;5079209;28;45290;-79
2021/12/19 09:17:19;;;;;;;;;14.00;13.67;;;;;;;;5080085;28;45510;-79
2021/12/19 09:19:44;;;;;;;;;14.00;11.00;;;;;;;;5079986;28;45348;-79
2021/12/19 09:22:09;;;;;;;;;15.67;12.00;;;;;;;;5079919;28;45363;-79
2021/12/19 09:24:35;;;;;;;;;11.00;10.33;;;;;;;;5079425;28;45529;-79
2021/12/19 09:27:00;;;;;;;;;13.67;12.67;;;;;;;;5078941;28;45452;-79
2021/12/19 09:29:28;;;;;;;;;11.00;8.67;;;;;;;;5079614;28;46410;-78
2021/12/19 09:31:53;;;;;;;;;11.00;10.00;;;;;;;;5061597;28;45362;-79
2021/12/19 09:34:18;;;;;;;;;8.67;7.33;;;;;;;;5061595;28;45322;-77
2021/12/19 09:36:43;;;;;;;;;9.67;6.00;;;;;;;;5082181;27;45415;-77
2021/12/19 09:39:09;;;;;;;;;9.00;9.00;;;;;;;;5100346;27;45359;-79
2021/12/19 09:41:42;;;;;;;;;14.33;12.67;;;;;;;;5099876;27;45356;-79
2021/12/19 09:44:09;;;;;;;;;13.67;13.67;;;;;;;;5100270;27;45330;-79
2021/12/19 09:46:35;;;;;;;;;10.00;7.67;;;;;;;;5099772;27;45451;-79
2021/12/19 09:49:00;;;;;;;;;15.67;15.00;;;;;;;;5081525;27;48361;-79
2021/12/19 09:51:25;;;;;;;;;13.00;12.00;;;;;;;;5099837;27;45278;-78
2021/12/19 09:53:50;;;;;;;;;14.00;11.33;;;;;;;;5100270;27;45296;-79
2021/12/19 09:56:16;;;;;;;;;17.00;15.67;;;;;;;;5081447;27;46848;-79
2021/12/19 09:58:41;;;;;;;;;15.00;10.00;;;;;;;;5099564;27;46681;-79
2021/12/19 10:01:08;;;;;;;;;8.00;8.00;;;;;;;;5100132;27;45256;-80
2021/12/19 10:03:35;;;;;;;;;9.33;8.67;;;;;;;;5099582;27;45259;-79
2021/12/19 10:06:20;;;;;;;;;13.00;12.67;;;;;;;;5099625;27;45369;-79
2021/12/19 10:08:48;;;;;;;;;10.00;10.00;;;;;;;;5081314;27;48231;-78
2021/12/19 10:11:30;;;;;;;;;13.33;12.00;;;;;;;;5091674;27;45400;-79
2021/12/19 10:13:56;;;;;;;;;13.33;11.33;;;;;;;;5079261;28;45346;-79
2021/12/19 10:16:24;;;;;;;;;11.00;11.00;;;;;;;;5060945;28;46026;-79
2021/12/19 10:18:50;;;;;;;;;16.33;13.33;;;;;;;;5079299;28;45494;-80
2021/12/19 10:21:17;;;;;;;;;16.67;13.00;;;;;;;;5060885;28;45367;-80
2021/12/19 10:23:42;;;;;;;;;14.33;12.67;;;;;;;;5061080;28;45248;-78
2021/12/19 10:26:09;;;;;;;;;19.67;16.00;;;;;;;;5060463;28;46055;-79
2021/12/19 10:28:48;;;;;;;;;14.33;13.00;;;;;;;;5078789;27;47209;-78
2021/12/19 10:31:13;;;;;;;;;21.67;18.67;;;;;;;;5060496;28;45354;-79
2021/12/19 10:33:38;;;;;;;;;19.67;15.33;;;;;;;;5078931;28;45361;-79
2021/12/19 10:36:05;;;;;;;;;23.00;17.67;;;;;;;;5078821;28;45501;-78
2021/12/19 10:38:32;;;;;;;;;18.67;14.00;;;;;;;;5078842;28;45686;-79
2021/12/19 10:41:00;;;;;;;;;19.33;17.00;;;;;;;;5060557;28;45663;-80
2021/12/19 10:43:29;;;;;;;;;19.67;14.67;;;;;;;;5079012;28;45393;-79
2021/12/19 10:45:56;;;;;;;;;22.67;20.00;;;;;;;;5060411;28;47310;-79
2021/12/19 10:48:26;;;;;;;;;17.00;15.00;;;;;;;;5060547;28;48235;-79
2021/12/19 10:50:54;;;;;;;;;22.67;21.33;;;;;;;;5081720;28;45366;-78
2021/12/19 10:53:23;;;;;;;;;22.33;19.00;;;;;;;;5082522;28;45255;-79
2021/12/19 10:55:49;;;;;;;;;19.00;19.00;;;;;;;;5081912;28;45246;-78
2021/12/19 10:58:43;;;;;;;;;21.33;18.00;;;;;;;;5081826;28;46068;-78
2021/12/19 11:01:13;;;;;;;;;22.67;21.67;;;;;;;;5051755;28;45269;-79
2021/12/19 11:03:41;;;;;;;;;23.00;18.33;;;;;;;;5081965;28;45453;-79
2021/12/19 11:06:17;;;;;;;;;24.00;21.33;;;;;;;;5081946;28;45239;-79
2021/12/19 11:08:43;;;;;;;;;24.00;19.33;;;;;;;;5063576;28;48007;-79
2021/12/19 11:11:09;;;;;;;;;21.33;19.00;;;;;;;;5063546;28;45621;-79
2021/12/19 11:13:35;;;;;;;;;17.33;16.00;;;;;;;;5082032;28;45283;-79
2021/12/19 11:16:00;;;;;;;;;21.33;18.00;;;;;;;;5081759;28;45459;-79
2021/12/19 11:18:25;;;;;;;;;20.67;16.33;;;;;;;;5082000;28;45255;-80
2021/12/19 11:20:51;;;;;;;;;16.33;15.67;;;;;;;;5063625;28;45366;-79
2021/12/19 11:23:16;;;;;;;;;21.33;19.00;;;;;;;;5084156;28;45310;-78
2021/12/19 11:25:42;;;;;;;;;19.33;16.67;;;;;;;;5081973;28;45395;-78
2021/12/19 11:28:08;;;;;;;;;19.33;19.33;;;;;;;;5082738;28;45316;-79
2021/12/19 11:30:33;;;;;;;;;18.00;16.67;;;;;;;;5051993;28;45352;-80
2021/12/19 11:33:17;;;;;;;;;22.33;20.00;;;;;;;;5061508;28;45315;-81
2021/12/19 11:35:45;;;;;;;;;18.33;16.00;;;;;;;;5043008;28;47188;-79
2021/12/19 11:38:11;;;;;;;;;22.33;21.00;;;;;;;;5057474;28;47669;-80
2021/12/19 11:40:37;;;;;;;;;24.00;23.67;;;;;;;;5081291;28;45146;-81
2021/12/19 11:43:06;;;;;;;;;21.00;19.33;;;;;;;;5081653;28;45272;-79
2021/12/19 11:48:20;;;;;;;;;24.00;21.67;;;;;;;;5082265;28;45212;-79
2021/12/19 11:50:46;;;;;;;;;21.33;19.33;;;;;;;;5081468;28;45298;-78
2021/12/19 11:53:12;;;;;;;;;20.00;19.00;;;;;;;;5063278;28;45196;-78
2021/12/19 11:55:40;;;;;;;;;22.33;21.33;;;;;;;;5081598;28;45480;-79
2021/12/19 11:58:08;;;;;;;;;21.33;20.67;;;;;;;;5063224;28;47173;-78
2021/12/19 12:00:35;;;;;;;;;20.00;17.67;;;;;;;;5080251;28;45264;-78
2021/12/19 12:03:12;;;;;;;;;22.00;21.33;;;;;;;;5062644;28;45341;-78
2021/12/19 12:05:38;;;;;;;;;21.67;21.33;;;;;;;;5081101;28;45268;-78
2021/12/19 12:08:06;;;;;;;;;23.25;18.75;;;;;;;;5081297;28;46431;-78
2021/12/19 12:10:47;;;;;;;;;25.00;22.00;;;;;;;;5062738;28;45318;-78
2021/12/19 12:13:29;;;;;;;;;23.33;20.67;;;;;;;;5081180;28;45173;-78
2021/12/19 12:16:03;;;;;;;;;22.67;19.33;;;;;;;;5081051;28;45501;-77
2021/12/19 12:18:29;;;;;;;;;16.67;15.33;;;;;;;;5080824;28;46413;-79
2021/12/19 12:20:54;;;;;;;;;23.00;18.25;;;;;;;;5081312;28;45307;-78
2021/12/19 12:23:24;;;;;;;;;24.33;22.33;;;;;;;;5081186;28;45296;-78
2021/12/19 12:25:49;;;;;;;;;20.67;18.67;;;;;;;;5080819;28;45201;-79
2021/12/19 12:28:17;;;;;;;;;21.33;18.67;;;;;;;;5067538;28;46278;-79
2021/12/19 12:30:52;;;;;;;;;23.00;20.33;;;;;;;;5055778;28;45351;-79
2021/12/19 12:33:19;;;;;;;;;24.33;23.00;;;;;;;;5044738;28;45416;-81
2021/12/19 12:35:46;;;;;;;;;16.33;14.67;;;;;;;;5060456;28;45366;-81
2021/12/19 12:38:11;;;;;;;;;18.00;15.67;;;;;;;;5071327;27;48564;-81
2021/12/19 12:40:57;;;;;;;;;21.00;17.67;;;;;;;;5100791;27;45301;-80
2021/12/19 12:43:26;;;;;;;;;15.33;14.00;;;;;;;;5101111;27;45267;-79
2021/12/19 12:45:54;;;;;;;;;22.33;17.67;;;;;;;;5082491;27;45770;-80
2021/12/19 12:48:25;;;;;;;;;15.33;15.00;;;;;;;;5071284;28;47845;-80
2021/12/19 12:50:50;;;;;;;;;16.67;15.00;;;;;;;;5080349;28;45355;-81
2021/12/19 12:53:26;;;;;;;;;17.67;17.00;;;;;;;;5080473;28;45254;-81
2021/12/19 12:56:13;;;;;;;;;19.00;17.67;;;;;;;;5061810;28;46334;-80
2021/12/19 12:58:43;;;;;;;;;16.67;14.00;;;;;;;;5061756;28;48443;-79
2021/12/19 13:01:16;;;;;;;;;17.00;15.00;;;;;;;;5079420;28;45428;-79
2021/12/19 13:04:02;;;;;;;;;17.67;17.33;;;;;;;;5079225;28;45423;-79
2021/12/19 13:06:46;;;;;;;;;21.67;16.00;;;;;;;;5060931;28;46250;-79
2021/12/19 13:09:13;;;;;;;;;21.33;20.33;;;;;;;;5061905;28;48223;-79
2021/12/19 13:11:38;;;;;;;;;23.33;21.00;;;;;;;;5079736;28;45283;-79
2021/12/19 13:14:10;;;;;;;;;22.00;17.00;;;;;;;;5077950;28;45342;-79
2021/12/19 13:17:08;;;;;;;;;24.00;16.33;;;;;;;;5061587;28;47204;-79
2021/12/19 13:19:35;;;;;;;;;19.00;16.33;;;;;;;;5034799;28;45268;-79
2021/12/19 13:22:00;;;;;;;;;19.67;17.67;;;;;;;;5080122;28;45566;-78
2021/12/19 13:24:25;;;;;;;;;21.00;18.00;;;;;;;;5078984;28;45391;-80
2021/12/19 13:27:09;;;;;;;;;21.67;19.00;;;;;;;;5061444;28;47402;-80
2021/12/19 13:29:35;;;;;;;;;19.67;17.33;;;;;;;;5079513;28;46307;-81
2021/12/19 13:32:39;;;;;;;;;17.33;14.67;;;;;;;;5079728;28;45359;-81
2021/12/19 13:35:11;;;;;;;;;13.67;13.67;;;;;;;;5017218;28;45364;-82
2021/12/19 13:37:45;;;;;;;;;19.67;15.00;;;;;;;;5017048;28;45371;-79
2021/12/19 13:40:12;;;;;;;;;20.33;17.00;;;;;;;;5052234;28;45471;-79
2021/12/19 13:42:39;;;;;;;;;15.33;14.67;;;;;;;;5079607;28;45338;-80
2021/12/19 13:45:21;;;;;;;;;22.00;20.00;;;;;;;;5061653;28;45330;-80
2021/12/19 13:47:47;;;;;;;;;21.67;17.33;;;;;;;;5079737;28;45469;-80
2021/12/19 13:50:12;;;;;;;;;20.33;16.00;;;;;;;;5079670;28;45328;-80
2021/12/19 13:52:37;;;;;;;;;15.00;14.00;;;;;;;;5061313;28;45271;-80
2021/12/19 13:55:06;;;;;;;;;11.00;11.00;;;;;;;;5079799;28;45423;-80
2021/12/19 13:57:31;;;;;;;;;24.00;18.33;;;;;;;;5061340;28;46640;-80
2021/12/19 13:59:56;;;;;;;;;18.67;14.67;;;;;;;;5079437;28;45993;-81
2021/12/19 14:02:22;;;;;;;;;19.67;17.67;;;;;;;;5061335;28;45378;-82
2021/12/19 14:04:47;;;;;;;;;14.33;13.67;;;;;;;;5079976;28;45372;-80
2021/12/19 14:07:14;;;;;;;;;20.33;18.33;;;;;;;;5061338;28;47013;-81
2021/12/19 14:09:41;;;;;;;;;17.33;16.00;;;;;;;;5061189;28;48246;-80
2021/12/19 14:12:11;;;;;;;;;23.33;21.33;;;;;;;;5074718;28;45352;-79
2021/12/19 14:14:37;;;;;;;;;17.67;17.67;;;;;;;;5061269;28;45268;-79
2021/12/19 14:17:04;;;;;;;;;20.33;16.00;;;;;;;;5079028;28;45835;-80
2021/12/19 14:19:30;;;;;;;;;21.33;18.33;;;;;;;;5048413;28;47413;-81
2021/12/19 14:22:01;;;;;;;;;19.67;18.33;;;;;;;;5049682;28;45451;-81
2021/12/19 14:24:31;;;;;;;;;21.00;19.00;;;;;;;;5063371;28;45713;-81
2021/12/19 14:27:14;;;;;;;;;26.00;21.67;;;;;;;;5071657;28;45576;-81
2021/12/19 14:29:41;;;;;;;;;23.00;22.00;;;;;;;;5073130;28;46188;-80
2021/12/19 14:32:06;;;;;;;;;18.67;17.67;;;;;;;;5060561;28;45414;-80
2021/12/19 14:34:32;;;;;;;;;24.67;21.67;;;;;;;;5073538;28;45560;-79
2021/12/19 14:37:11;;;;;;;;;26.33;23.00;;;;;;;;5067206;27;47790;-79
2021/12/19 14:39:36;;;;;;;;;31.00;25.67;;;;;;;;5063196;28;47530;-79
2021/12/19 14:42:08;;;;;;;;;27.33;23.67;;;;;;;;5070698;28;45366;-79
2021/12/19 14:44:34;;;;;;;;;16.33;15.33;;;;;;;;5071322;28;45347;-80
2021/12/19 14:46:59;;;;;;;;;17.67;17.00;;;;;;;;5069774;28;45270;-80
2021/12/19 14:49:35;;;;;;;;;19.00;18.00;;;;;;;;5047009;28;47191;-80
2021/12/19 14:52:00;;;;;;;;;19.00;17.00;;;;;;;;5071904;28;45552;-79
2021/12/19 14:54:25;;;;;;;;;23.67;23.33;;;;;;;;5057366;28;45454;-80
2021/12/19 14:56:50;;;;;;;;;15.67;15.67;;;;;;;;5070728;28;45562;-79
2021/12/19 14:59:17;;;;;;;;;19.33;17.33;;;;;;;;5054594;28;48280;-85
2021/12/19 15:01:42;;;;;;;;;11.33;11.00;;;;;;;;5073378;28;45507;-80
2021/12/19 15:04:09;;;;;;;;;11.00;9.67;;;;;;;;5061669;28;45384;-79
2021/12/19 15:06:39;;;;;;;;;8.00;8.00;;;;;;;;5060145;28;46178;-80
2021/12/19 15:09:06;;;;;;;;;13.00;12.33;;;;;;;;5071806;28;45377;-80
2021/12/19 15:11:31;;;;;;;;;11.67;10.00;;;;;;;;5070347;28;45397;-84
2021/12/19 15:13:57;;;;;;;;;12.67;12.67;;;;;;;;5062663;28;45468;-79
2021/12/19 15:16:22;;;;;;;;;13.00;13.00;;;;;;;;5063408;28;46166;-80
2021/12/19 15:18:47;;;;;;;;;12.67;9.00;;;;;;;;5073463;28;46199;-82
2021/12/19 15:21:13;;;;;;;;;15.00;12.00;;;;;;;;5072427;28;45469;-80
2021/12/19 15:23:47;;;;;;;;;15.67;14.00;;;;;;;;5061686;28;45814;-81
2021/12/19 15:26:16;;;;;;;;;16.00;14.00;;;;;;;;5071625;28;45319;-81
2021/12/19 15:28:42;;;;;;;;;13.67;13.67;;;;;;;;5070302;28;46486;-79